sensor_id;sensor_type;location;lat;lon;timestamp;temperature;humidity
22069;DHT22;13887;57.196;-2.100;2023-07-16T00:00:40;16.45;78.75
22069;DHT22;13887;57.196;-2.100;2023-07-16T00:03:07;16.42;78.92
22069;DHT22;13887;57.196;-2.100;2023-07-16T00:05:36;16.40;78.89
22069;DHT22;13887;57.196;-2.100;2023-07-16T00:08:04;16.39;78.96
22069;DHT22;13887;57.196;-2.100;2023-07-16T00:10:35;16.39;78.95
22069;DHT22;13887;57.196;-2.100;2023-07-16T00:13:03;16.36;78.92
22069;DHT22;13887;57.196;-2.100;2023-07-16T00:15:32;16.36;78.83
22069;DHT22;13887;57.196;-2.100;2023-07-16T00:17:59;16.34;78.90
22069;DHT22;13887;57.196;-2.100;2023-07-16T00:20:27;16.33;78.95
22069;DHT22;13887;57.196;-2.100;2023-07-16T00:22:54;16.32;78.86
22069;DHT22;13887;57.196;-2.100;2023-07-16T00:25:21;16.30;78.79
22069;DHT22;13887;57.196;-2.100;2023-07-16T00:27:48;16.25;78.87
22069;DHT22;13887;57.196;-2.100;2023-07-16T00:30:15;16.24;78.82
22069;DHT22;13887;57.196;-2.100;2023-07-16T00:32:42;16.25;78.71
22069;DHT22;13887;57.196;-2.100;2023-07-16T00:35:10;16.27;78.82
22069;DHT22;13887;57.196;-2.100;2023-07-16T00:37:37;16.25;78.63
22069;DHT22;13887;57.196;-2.100;2023-07-16T00:40:07;16.21;78.71
22069;DHT22;13887;57.196;-2.100;2023-07-16T00:42:34;16.20;78.68
22069;DHT22;13887;57.196;-2.100;2023-07-16T00:45:02;16.21;78.66
22069;DHT22;13887;57.196;-2.100;2023-07-16T00:47:30;16.19;78.71
22069;DHT22;13887;57.196;-2.100;2023-07-16T00:49:57;16.19;78.63
22069;DHT22;13887;57.196;-2.100;2023-07-16T00:52:25;16.15;78.62
22069;DHT22;13887;57.196;-2.100;2023-07-16T00:54:52;16.15;78.58
22069;DHT22;13887;57.196;-2.100;2023-07-16T00:57:22;16.12;78.53
22069;DHT22;13887;57.196;-2.100;2023-07-16T00:59:49;16.11;78.53
22069;DHT22;13887;57.196;-2.100;2023-07-16T01:02:17;16.05;78.55
22069;DHT22;13887;57.196;-2.100;2023-07-16T01:04:45;16.04;78.59
22069;DHT22;13887;57.196;-2.100;2023-07-16T01:07:15;16.03;78.49
22069;DHT22;13887;57.196;-2.100;2023-07-16T01:09:45;16.03;78.30
22069;DHT22;13887;57.196;-2.100;2023-07-16T01:12:13;16.00;78.36
22069;DHT22;13887;57.196;-2.100;2023-07-16T01:14:41;15.98;78.36
22069;DHT22;13887;57.196;-2.100;2023-07-16T01:17:08;15.96;78.21
22069;DHT22;13887;57.196;-2.100;2023-07-16T01:19:35;15.95;78.14
22069;DHT22;13887;57.196;-2.100;2023-07-16T01:30:08;15.95;77.97
22069;DHT22;13887;57.196;-2.100;2023-07-16T01:32:39;15.92;78.06
22069;DHT22;13887;57.196;-2.100;2023-07-16T01:35:08;15.91;78.10
22069;DHT22;13887;57.196;-2.100;2023-07-16T01:37:35;15.91;78.08
22069;DHT22;13887;57.196;-2.100;2023-07-16T01:40:03;15.92;78.02
22069;DHT22;13887;57.196;-2.100;2023-07-16T01:42:30;15.95;77.89
22069;DHT22;13887;57.196;-2.100;2023-07-16T01:44:57;15.93;77.97
22069;DHT22;13887;57.196;-2.100;2023-07-16T01:47:39;15.89;78.03
22069;DHT22;13887;57.196;-2.100;2023-07-16T01:50:10;15.88;78.09
22069;DHT22;13887;57.196;-2.100;2023-07-16T01:52:37;15.83;78.21
22069;DHT22;13887;57.196;-2.100;2023-07-16T01:55:04;15.81;78.17
22069;DHT22;13887;57.196;-2.100;2023-07-16T01:57:32;15.77;78.27
22069;DHT22;13887;57.196;-2.100;2023-07-16T01:59:59;15.77;78.41
22069;DHT22;13887;57.196;-2.100;2023-07-16T02:02:26;15.74;78.21
22069;DHT22;13887;57.196;-2.100;2023-07-16T02:04:54;15.76;78.18
22069;DHT22;13887;57.196;-2.100;2023-07-16T02:07:21;15.78;78.07
22069;DHT22;13887;57.196;-2.100;2023-07-16T02:09:50;15.80;78.02
22069;DHT22;13887;57.196;-2.100;2023-07-16T02:12:17;15.82;77.96
22069;DHT22;13887;57.196;-2.100;2023-07-16T02:14:44;15.83;78.01
22069;DHT22;13887;57.196;-2.100;2023-07-16T02:17:12;15.81;78.11
22069;DHT22;13887;57.196;-2.100;2023-07-16T02:19:40;15.78;78.07
22069;DHT22;13887;57.196;-2.100;2023-07-16T02:22:09;15.76;77.91
22069;DHT22;13887;57.196;-2.100;2023-07-16T02:24:36;15.73;77.92
22069;DHT22;13887;57.196;-2.100;2023-07-16T02:27:04;15.72;77.95
22069;DHT22;13887;57.196;-2.100;2023-07-16T02:29:32;15.69;77.89
22069;DHT22;13887;57.196;-2.100;2023-07-16T02:32:00;15.68;77.86
22069;DHT22;13887;57.196;-2.100;2023-07-16T02:34:27;15.66;77.89
22069;DHT22;13887;57.196;-2.100;2023-07-16T02:36:54;15.67;77.85
22069;DHT22;13887;57.196;-2.100;2023-07-16T02:39:21;15.67;77.92
22069;DHT22;13887;57.196;-2.100;2023-07-16T02:41:49;15.63;77.89
22069;DHT22;13887;57.196;-2.100;2023-07-16T02:44:17;15.66;77.88
22069;DHT22;13887;57.196;-2.100;2023-07-16T02:46:44;15.67;77.85
22069;DHT22;13887;57.196;-2.100;2023-07-16T02:49:11;15.67;77.94
22069;DHT22;13887;57.196;-2.100;2023-07-16T02:51:38;15.67;77.86
22069;DHT22;13887;57.196;-2.100;2023-07-16T02:54:06;15.68;77.76
22069;DHT22;13887;57.196;-2.100;2023-07-16T02:56:33;15.68;77.65
22069;DHT22;13887;57.196;-2.100;2023-07-16T02:59:01;15.69;77.76
22069;DHT22;13887;57.196;-2.100;2023-07-16T03:01:30;15.68;77.81
22069;DHT22;13887;57.196;-2.100;2023-07-16T03:03:57;15.68;77.75
22069;DHT22;13887;57.196;-2.100;2023-07-16T03:06:25;15.69;77.76
22069;DHT22;13887;57.196;-2.100;2023-07-16T03:08:52;15.68;77.74
22069;DHT22;13887;57.196;-2.100;2023-07-16T03:11:19;15.69;77.79
22069;DHT22;13887;57.196;-2.100;2023-07-16T03:13:46;15.68;77.76
22069;DHT22;13887;57.196;-2.100;2023-07-16T03:16:13;15.70;77.75
22069;DHT22;13887;57.196;-2.100;2023-07-16T03:18:44;15.70;77.85
22069;DHT22;13887;57.196;-2.100;2023-07-16T03:21:12;15.71;77.80
22069;DHT22;13887;57.196;-2.100;2023-07-16T03:23:39;15.71;77.82
22069;DHT22;13887;57.196;-2.100;2023-07-16T03:26:06;15.71;77.77
22069;DHT22;13887;57.196;-2.100;2023-07-16T03:28:34;15.70;77.85
22069;DHT22;13887;57.196;-2.100;2023-07-16T03:31:04;15.68;77.89
22069;DHT22;13887;57.196;-2.100;2023-07-16T03:33:34;15.67;78.00
22069;DHT22;13887;57.196;-2.100;2023-07-16T03:36:03;15.67;77.89
22069;DHT22;13887;57.196;-2.100;2023-07-16T03:38:30;15.68;78.01
22069;DHT22;13887;57.196;-2.100;2023-07-16T03:40:57;15.68;78.01
22069;DHT22;13887;57.196;-2.100;2023-07-16T03:43:24;15.68;77.96
22069;DHT22;13887;57.196;-2.100;2023-07-16T03:45:58;15.70;77.94
22069;DHT22;13887;57.196;-2.100;2023-07-16T03:48:25;15.68;78.01
22069;DHT22;13887;57.196;-2.100;2023-07-16T03:50:53;15.69;77.94
22069;DHT22;13887;57.196;-2.100;2023-07-16T03:53:22;15.69;77.98
22069;DHT22;13887;57.196;-2.100;2023-07-16T03:55:49;15.69;77.99
22069;DHT22;13887;57.196;-2.100;2023-07-16T03:58:16;15.70;77.95
22069;DHT22;13887;57.196;-2.100;2023-07-16T04:00:44;15.70;77.92
22069;DHT22;13887;57.196;-2.100;2023-07-16T04:03:11;15.71;78.00
22069;DHT22;13887;57.196;-2.100;2023-07-16T04:05:38;15.69;78.08
22069;DHT22;13887;57.196;-2.100;2023-07-16T04:08:06;15.70;78.08
22069;DHT22;13887;57.196;-2.100;2023-07-16T04:10:35;15.70;78.13
22069;DHT22;13887;57.196;-2.100;2023-07-16T04:13:02;15.68;78.18
22069;DHT22;13887;57.196;-2.100;2023-07-16T04:15:29;15.69;78.21
22069;DHT22;13887;57.196;-2.100;2023-07-16T04:17:57;15.70;78.28
22069;DHT22;13887;57.196;-2.100;2023-07-16T04:20:24;15.69;78.30
22069;DHT22;13887;57.196;-2.100;2023-07-16T04:22:51;15.70;78.38
22069;DHT22;13887;57.196;-2.100;2023-07-16T04:25:19;15.70;78.40
22069;DHT22;13887;57.196;-2.100;2023-07-16T04:27:46;15.71;78.36
22069;DHT22;13887;57.196;-2.100;2023-07-16T04:30:13;15.69;78.42
22069;DHT22;13887;57.196;-2.100;2023-07-16T04:32:40;15.69;78.51
22069;DHT22;13887;57.196;-2.100;2023-07-16T04:35:09;15.69;78.47
22069;DHT22;13887;57.196;-2.100;2023-07-16T04:37:36;15.71;78.48
22069;DHT22;13887;57.196;-2.100;2023-07-16T04:40:04;15.71;78.53
22069;DHT22;13887;57.196;-2.100;2023-07-16T04:42:31;15.72;78.53
22069;DHT22;13887;57.196;-2.100;2023-07-16T04:44:58;15.70;78.53
22069;DHT22;13887;57.196;-2.100;2023-07-16T04:47:25;15.71;78.55
22069;DHT22;13887;57.196;-2.100;2023-07-16T04:49:52;15.73;78.55
22069;DHT22;13887;57.196;-2.100;2023-07-16T04:52:20;15.71;78.59
22069;DHT22;13887;57.196;-2.100;2023-07-16T04:54:47;15.71;78.58
22069;DHT22;13887;57.196;-2.100;2023-07-16T04:57:14;15.71;78.57
22069;DHT22;13887;57.196;-2.100;2023-07-16T04:59:41;15.69;78.72
22069;DHT22;13887;57.196;-2.100;2023-07-16T05:02:08;15.71;78.69
22069;DHT22;13887;57.196;-2.100;2023-07-16T05:04:36;15.70;78.72
22069;DHT22;13887;57.196;-2.100;2023-07-16T05:07:04;15.71;78.73
22069;DHT22;13887;57.196;-2.100;2023-07-16T05:09:31;15.71;78.69
22069;DHT22;13887;57.196;-2.100;2023-07-16T05:11:58;15.72;78.75
22069;DHT22;13887;57.196;-2.100;2023-07-16T05:14:27;15.72;78.72
22069;DHT22;13887;57.196;-2.100;2023-07-16T05:16:55;15.72;78.75
22069;DHT22;13887;57.196;-2.100;2023-07-16T05:19:23;15.71;78.80
22069;DHT22;13887;57.196;-2.100;2023-07-16T05:21:50;15.70;78.79
22069;DHT22;13887;57.196;-2.100;2023-07-16T05:24:18;15.71;78.79
22069;DHT22;13887;57.196;-2.100;2023-07-16T05:26:47;15.72;78.82
22069;DHT22;13887;57.196;-2.100;2023-07-16T05:29:15;15.73;78.85
22069;DHT22;13887;57.196;-2.100;2023-07-16T05:31:42;15.72;78.88
22069;DHT22;13887;57.196;-2.100;2023-07-16T05:34:10;15.71;78.85
22069;DHT22;13887;57.196;-2.100;2023-07-16T05:36:37;15.71;78.95
22069;DHT22;13887;57.196;-2.100;2023-07-16T05:39:04;15.71;79.02
22069;DHT22;13887;57.196;-2.100;2023-07-16T05:41:31;15.71;78.99
22069;DHT22;13887;57.196;-2.100;2023-07-16T05:43:58;15.72;79.01
22069;DHT22;13887;57.196;-2.100;2023-07-16T05:46:26;15.71;79.07
22069;DHT22;13887;57.196;-2.100;2023-07-16T05:48:53;15.72;79.09
22069;DHT22;13887;57.196;-2.100;2023-07-16T05:51:20;15.74;79.03
22069;DHT22;13887;57.196;-2.100;2023-07-16T05:53:48;15.73;79.08
22069;DHT22;13887;57.196;-2.100;2023-07-16T05:56:15;15.72;79.09
22069;DHT22;13887;57.196;-2.100;2023-07-16T05:58:42;15.74;79.02
22069;DHT22;13887;57.196;-2.100;2023-07-16T06:01:09;15.73;79.12
22069;DHT22;13887;57.196;-2.100;2023-07-16T06:03:36;15.74;79.11
22069;DHT22;13887;57.196;-2.100;2023-07-16T06:06:04;15.74;79.17
22069;DHT22;13887;57.196;-2.100;2023-07-16T06:08:33;15.74;79.27
22069;DHT22;13887;57.196;-2.100;2023-07-16T06:11:00;15.74;79.20
22069;DHT22;13887;57.196;-2.100;2023-07-16T06:13:27;15.75;79.20
22069;DHT22;13887;57.196;-2.100;2023-07-16T06:15:54;15.76;79.27
22069;DHT22;13887;57.196;-2.100;2023-07-16T06:18:22;15.76;79.21
22069;DHT22;13887;57.196;-2.100;2023-07-16T06:20:49;15.74;79.44
22069;DHT22;13887;57.196;-2.100;2023-07-16T06:23:18;15.75;79.41
22069;DHT22;13887;57.196;-2.100;2023-07-16T06:25:46;15.73;79.61
22069;DHT22;13887;57.196;-2.100;2023-07-16T06:28:16;15.74;79.54
22069;DHT22;13887;57.196;-2.100;2023-07-16T06:30:43;15.74;79.58
22069;DHT22;13887;57.196;-2.100;2023-07-16T06:33:11;15.75;79.57
22069;DHT22;13887;57.196;-2.100;2023-07-16T06:35:38;15.75;79.64
22069;DHT22;13887;57.196;-2.100;2023-07-16T06:38:05;15.76;79.59
22069;DHT22;13887;57.196;-2.100;2023-07-16T06:40:32;15.77;79.57
22069;DHT22;13887;57.196;-2.100;2023-07-16T06:42:59;15.80;79.57
22069;DHT22;13887;57.196;-2.100;2023-07-16T06:45:27;15.83;79.71
22069;DHT22;13887;57.196;-2.100;2023-07-16T06:47:54;15.87;79.78
22069;DHT22;13887;57.196;-2.100;2023-07-16T06:50:21;15.90;80.03
22069;DHT22;13887;57.196;-2.100;2023-07-16T06:52:48;15.96;79.91
22069;DHT22;13887;57.196;-2.100;2023-07-16T06:55:16;15.95;79.85
22069;DHT22;13887;57.196;-2.100;2023-07-16T06:57:43;15.95;80.13
22069;DHT22;13887;57.196;-2.100;2023-07-16T07:00:10;15.96;80.12
22069;DHT22;13887;57.196;-2.100;2023-07-16T07:02:38;15.98;80.45
22069;DHT22;13887;57.196;-2.100;2023-07-16T07:05:05;16.01;80.67
22069;DHT22;13887;57.196;-2.100;2023-07-16T07:07:32;15.97;80.50
22069;DHT22;13887;57.196;-2.100;2023-07-16T07:10:00;15.98;80.59
22069;DHT22;13887;57.196;-2.100;2023-07-16T07:12:28;15.99;80.55
22069;DHT22;13887;57.196;-2.100;2023-07-16T07:14:55;15.99;80.27
22069;DHT22;13887;57.196;-2.100;2023-07-16T07:17:24;16.00;80.56
22069;DHT22;13887;57.196;-2.100;2023-07-16T07:19:51;15.99;81.15
22069;DHT22;13887;57.196;-2.100;2023-07-16T07:22:19;15.97;81.13
22069;DHT22;13887;57.196;-2.100;2023-07-16T07:24:48;15.92;80.20
22069;DHT22;13887;57.196;-2.100;2023-07-16T07:27:16;15.92;80.28
22069;DHT22;13887;57.196;-2.100;2023-07-16T07:29:43;15.92;80.18
22069;DHT22;13887;57.196;-2.100;2023-07-16T07:32:10;15.90;80.15
22069;DHT22;13887;57.196;-2.100;2023-07-16T07:34:40;15.90;80.27
22069;DHT22;13887;57.196;-2.100;2023-07-16T07:37:07;15.91;80.37
22069;DHT22;13887;57.196;-2.100;2023-07-16T07:39:35;15.90;80.36
22069;DHT22;13887;57.196;-2.100;2023-07-16T07:42:03;15.90;80.36
22069;DHT22;13887;57.196;-2.100;2023-07-16T07:44:30;15.92;80.39
22069;DHT22;13887;57.196;-2.100;2023-07-16T07:46:57;15.92;80.26
22069;DHT22;13887;57.196;-2.100;2023-07-16T07:49:24;15.98;80.04
22069;DHT22;13887;57.196;-2.100;2023-07-16T07:51:52;16.02;80.12
22069;DHT22;13887;57.196;-2.100;2023-07-16T07:54:19;16.03;80.08
22069;DHT22;13887;57.196;-2.100;2023-07-16T07:56:46;16.05;80.59
22069;DHT22;13887;57.196;-2.100;2023-07-16T07:59:13;16.05;80.63
22069;DHT22;13887;57.196;-2.100;2023-07-16T08:01:41;16.04;80.84
22069;DHT22;13887;57.196;-2.100;2023-07-16T08:04:08;16.10;80.76
22069;DHT22;13887;57.196;-2.100;2023-07-16T08:06:35;16.11;80.70
22069;DHT22;13887;57.196;-2.100;2023-07-16T08:09:02;16.13;80.49
22069;DHT22;13887;57.196;-2.100;2023-07-16T08:11:29;16.15;80.18
22069;DHT22;13887;57.196;-2.100;2023-07-16T08:13:57;16.18;80.10
22069;DHT22;13887;57.196;-2.100;2023-07-16T08:16:24;16.17;80.09
22069;DHT22;13887;57.196;-2.100;2023-07-16T08:18:51;16.18;80.01
22069;DHT22;13887;57.196;-2.100;2023-07-16T08:21:19;16.19;80.05
22069;DHT22;13887;57.196;-2.100;2023-07-16T08:23:51;16.19;79.95
22069;DHT22;13887;57.196;-2.100;2023-07-16T08:26:18;16.20;79.98
22069;DHT22;13887;57.196;-2.100;2023-07-16T08:28:46;16.25;80.11
22069;DHT22;13887;57.196;-2.100;2023-07-16T08:31:13;16.25;80.14
22069;DHT22;13887;57.196;-2.100;2023-07-16T08:33:40;16.25;80.16
22069;DHT22;13887;57.196;-2.100;2023-07-16T08:36:09;16.26;80.01
22069;DHT22;13887;57.196;-2.100;2023-07-16T08:38:36;16.24;80.17
22069;DHT22;13887;57.196;-2.100;2023-07-16T08:41:04;16.24;80.28
22069;DHT22;13887;57.196;-2.100;2023-07-16T08:43:33;16.25;80.22
22069;DHT22;13887;57.196;-2.100;2023-07-16T08:46:02;16.28;80.02
22069;DHT22;13887;57.196;-2.100;2023-07-16T08:48:29;16.31;79.87
22069;DHT22;13887;57.196;-2.100;2023-07-16T08:50:57;16.32;79.88
22069;DHT22;13887;57.196;-2.100;2023-07-16T08:53:25;16.34;79.89
22069;DHT22;13887;57.196;-2.100;2023-07-16T08:55:53;16.33;79.97
22069;DHT22;13887;57.196;-2.100;2023-07-16T08:58:24;16.33;79.95
22069;DHT22;13887;57.196;-2.100;2023-07-16T09:00:51;16.33;80.62
22069;DHT22;13887;57.196;-2.100;2023-07-16T09:03:19;16.34;80.24
22069;DHT22;13887;57.196;-2.100;2023-07-16T09:05:46;16.33;80.32
22069;DHT22;13887;57.196;-2.100;2023-07-16T09:08:14;16.32;80.36
22069;DHT22;13887;57.196;-2.100;2023-07-16T09:10:42;16.33;80.21
22069;DHT22;13887;57.196;-2.100;2023-07-16T09:13:10;16.35;80.21
22069;DHT22;13887;57.196;-2.100;2023-07-16T09:15:37;16.36;80.15
22069;DHT22;13887;57.196;-2.100;2023-07-16T09:18:06;16.39;80.14
22069;DHT22;13887;57.196;-2.100;2023-07-16T09:20:33;16.41;80.40
22069;DHT22;13887;57.196;-2.100;2023-07-16T09:23:01;16.41;80.12
22069;DHT22;13887;57.196;-2.100;2023-07-16T09:25:29;16.44;80.01
22069;DHT22;13887;57.196;-2.100;2023-07-16T09:28:00;16.46;79.95
22069;DHT22;13887;57.196;-2.100;2023-07-16T09:30:32;16.49;79.93
22069;DHT22;13887;57.196;-2.100;2023-07-16T09:33:17;16.52;79.78
22069;DHT22;13887;57.196;-2.100;2023-07-16T09:35:47;16.54;79.70
22069;DHT22;13887;57.196;-2.100;2023-07-16T09:38:15;16.54;79.69
22069;DHT22;13887;57.196;-2.100;2023-07-16T09:40:42;16.52;80.11
22069;DHT22;13887;57.196;-2.100;2023-07-16T09:43:11;16.52;80.27
22069;DHT22;13887;57.196;-2.100;2023-07-16T09:45:39;16.51;80.19
22069;DHT22;13887;57.196;-2.100;2023-07-16T09:48:06;16.50;80.34
22069;DHT22;13887;57.196;-2.100;2023-07-16T09:50:35;16.50;80.49
22069;DHT22;13887;57.196;-2.100;2023-07-16T09:53:05;16.50;80.76
22069;DHT22;13887;57.196;-2.100;2023-07-16T09:55:35;16.51;80.53
22069;DHT22;13887;57.196;-2.100;2023-07-16T09:58:07;16.51;80.52
22069;DHT22;13887;57.196;-2.100;2023-07-16T10:00:36;16.52;80.27
22069;DHT22;13887;57.196;-2.100;2023-07-16T10:03:07;16.58;80.15
22069;DHT22;13887;57.196;-2.100;2023-07-16T10:05:38;16.63;79.94
22069;DHT22;13887;57.196;-2.100;2023-07-16T10:08:15;16.62;79.91
22069;DHT22;13887;57.196;-2.100;2023-07-16T10:10:49;16.61;79.95
22069;DHT22;13887;57.196;-2.100;2023-07-16T10:13:22;16.63;79.93
22069;DHT22;13887;57.196;-2.100;2023-07-16T10:15:55;16.66;79.85
22069;DHT22;13887;57.196;-2.100;2023-07-16T10:18:32;16.71;79.93
22069;DHT22;13887;57.196;-2.100;2023-07-16T10:21:02;16.74;79.68
22069;DHT22;13887;57.196;-2.100;2023-07-16T10:23:42;16.76;80.01
22069;DHT22;13887;57.196;-2.100;2023-07-16T10:26:12;16.75;80.04
22069;DHT22;13887;57.196;-2.100;2023-07-16T10:28:46;16.75;80.01
22069;DHT22;13887;57.196;-2.100;2023-07-16T10:31:19;16.77;80.03
22069;DHT22;13887;57.196;-2.100;2023-07-16T10:34:01;16.80;80.07
22069;DHT22;13887;57.196;-2.100;2023-07-16T10:36:28;16.78;80.13
22069;DHT22;13887;57.196;-2.100;2023-07-16T10:39:03;16.75;80.33
22069;DHT22;13887;57.196;-2.100;2023-07-16T10:41:31;16.75;80.66
22069;DHT22;13887;57.196;-2.100;2023-07-16T10:44:00;16.71;80.90
22069;DHT22;13887;57.196;-2.100;2023-07-16T10:46:27;16.69;80.85
22069;DHT22;13887;57.196;-2.100;2023-07-16T10:48:55;16.67;81.05
22069;DHT22;13887;57.196;-2.100;2023-07-16T10:51:26;16.67;80.93
22069;DHT22;13887;57.196;-2.100;2023-07-16T10:53:57;16.70;80.88
22069;DHT22;13887;57.196;-2.100;2023-07-16T10:56:25;16.72;80.75
22069;DHT22;13887;57.196;-2.100;2023-07-16T10:58:52;16.70;81.35
22069;DHT22;13887;57.196;-2.100;2023-07-16T11:01:20;16.72;81.33
22069;DHT22;13887;57.196;-2.100;2023-07-16T11:03:47;16.74;81.27
22069;DHT22;13887;57.196;-2.100;2023-07-16T11:06:15;16.71;80.97
22069;DHT22;13887;57.196;-2.100;2023-07-16T11:08:44;16.67;80.78
22069;DHT22;13887;57.196;-2.100;2023-07-16T11:11:11;16.69;80.82
22069;DHT22;13887;57.196;-2.100;2023-07-16T11:13:38;16.67;80.86
22069;DHT22;13887;57.196;-2.100;2023-07-16T11:16:09;16.73;80.70
22069;DHT22;13887;57.196;-2.100;2023-07-16T11:18:37;16.74;80.81
22069;DHT22;13887;57.196;-2.100;2023-07-16T11:21:04;16.78;80.43
22069;DHT22;13887;57.196;-2.100;2023-07-16T11:23:35;16.86;79.75
22069;DHT22;13887;57.196;-2.100;2023-07-16T11:26:03;16.90;79.71
22069;DHT22;13887;57.196;-2.100;2023-07-16T11:28:41;16.91;79.55
22069;DHT22;13887;57.196;-2.100;2023-07-16T11:31:16;16.92;79.54
22069;DHT22;13887;57.196;-2.100;2023-07-16T11:33:47;16.94;79.64
22069;DHT22;13887;57.196;-2.100;2023-07-16T11:36:16;16.95;79.64
22069;DHT22;13887;57.196;-2.100;2023-07-16T11:38:44;16.98;79.45
22069;DHT22;13887;57.196;-2.100;2023-07-16T11:41:12;17.00;79.46
22069;DHT22;13887;57.196;-2.100;2023-07-16T11:43:40;17.00;79.68
22069;DHT22;13887;57.196;-2.100;2023-07-16T11:46:15;16.98;80.86
22069;DHT22;13887;57.196;-2.100;2023-07-16T11:48:44;16.98;80.56
22069;DHT22;13887;57.196;-2.100;2023-07-16T11:51:11;16.98;80.46
22069;DHT22;13887;57.196;-2.100;2023-07-16T11:53:39;17.00;80.45
22069;DHT22;13887;57.196;-2.100;2023-07-16T11:56:06;17.00;80.90
22069;DHT22;13887;57.196;-2.100;2023-07-16T11:58:33;17.04;80.56
22069;DHT22;13887;57.196;-2.100;2023-07-16T12:01:01;17.05;80.69
22069;DHT22;13887;57.196;-2.100;2023-07-16T12:03:28;17.07;80.74
22069;DHT22;13887;57.196;-2.100;2023-07-16T12:05:55;17.08;80.75
22069;DHT22;13887;57.196;-2.100;2023-07-16T12:08:23;17.08;80.78
22069;DHT22;13887;57.196;-2.100;2023-07-16T12:10:50;17.13;80.81
22069;DHT22;13887;57.196;-2.100;2023-07-16T12:13:19;17.10;80.68
22069;DHT22;13887;57.196;-2.100;2023-07-16T12:15:46;17.09;80.56
22069;DHT22;13887;57.196;-2.100;2023-07-16T12:18:13;17.08;80.72
22069;DHT22;13887;57.196;-2.100;2023-07-16T12:20:40;17.08;80.78
22069;DHT22;13887;57.196;-2.100;2023-07-16T12:23:08;17.07;80.78
22069;DHT22;13887;57.196;-2.100;2023-07-16T12:25:35;17.11;80.84
22069;DHT22;13887;57.196;-2.100;2023-07-16T12:28:02;17.15;80.80
22069;DHT22;13887;57.196;-2.100;2023-07-16T12:30:30;17.19;80.57
22069;DHT22;13887;57.196;-2.100;2023-07-16T12:32:57;17.24;80.53
22069;DHT22;13887;57.196;-2.100;2023-07-16T12:35:24;17.28;80.66
22069;DHT22;13887;57.196;-2.100;2023-07-16T12:37:51;17.28;80.78
22069;DHT22;13887;57.196;-2.100;2023-07-16T12:40:19;17.30;81.25
22069;DHT22;13887;57.196;-2.100;2023-07-16T12:42:46;17.31;81.37
22069;DHT22;13887;57.196;-2.100;2023-07-16T12:45:13;17.35;81.39
22069;DHT22;13887;57.196;-2.100;2023-07-16T12:47:40;17.37;81.81
22069;DHT22;13887;57.196;-2.100;2023-07-16T12:50:09;17.38;81.68
22069;DHT22;13887;57.196;-2.100;2023-07-16T12:52:36;17.38;81.86
22069;DHT22;13887;57.196;-2.100;2023-07-16T12:55:05;17.37;81.51
22069;DHT22;13887;57.196;-2.100;2023-07-16T12:57:32;17.37;81.84
22069;DHT22;13887;57.196;-2.100;2023-07-16T12:59:59;17.35;82.26
22069;DHT22;13887;57.196;-2.100;2023-07-16T13:02:28;17.34;82.30
22069;DHT22;13887;57.196;-2.100;2023-07-16T13:04:56;17.33;82.43
22069;DHT22;13887;57.196;-2.100;2023-07-16T13:07:23;17.33;82.41
22069;DHT22;13887;57.196;-2.100;2023-07-16T13:09:50;17.34;82.43
22069;DHT22;13887;57.196;-2.100;2023-07-16T13:12:30;17.35;82.84
22069;DHT22;13887;57.196;-2.100;2023-07-16T13:14:57;17.33;82.68
22069;DHT22;13887;57.196;-2.100;2023-07-16T13:17:25;17.34;82.66
22069;DHT22;13887;57.196;-2.100;2023-07-16T13:19:52;17.37;82.64
22069;DHT22;13887;57.196;-2.100;2023-07-16T13:22:19;17.38;83.01
22069;DHT22;13887;57.196;-2.100;2023-07-16T13:24:46;17.37;83.14
22069;DHT22;13887;57.196;-2.100;2023-07-16T13:27:21;17.37;83.58
22069;DHT22;13887;57.196;-2.100;2023-07-16T13:29:48;17.37;83.40
22069;DHT22;13887;57.196;-2.100;2023-07-16T13:32:16;17.38;83.22
22069;DHT22;13887;57.196;-2.100;2023-07-16T13:34:43;17.39;83.24
22069;DHT22;13887;57.196;-2.100;2023-07-16T13:37:10;17.39;83.20
22069;DHT22;13887;57.196;-2.100;2023-07-16T13:39:38;17.39;83.20
22069;DHT22;13887;57.196;-2.100;2023-07-16T13:42:05;17.41;83.42
22069;DHT22;13887;57.196;-2.100;2023-07-16T13:44:47;17.43;83.75
22069;DHT22;13887;57.196;-2.100;2023-07-16T13:47:14;17.41;84.11
22069;DHT22;13887;57.196;-2.100;2023-07-16T13:49:41;17.41;84.13
22069;DHT22;13887;57.196;-2.100;2023-07-16T13:52:08;17.38;83.94
22069;DHT22;13887;57.196;-2.100;2023-07-16T13:54:37;17.39;83.98
22069;DHT22;13887;57.196;-2.100;2023-07-16T13:57:09;17.40;83.94
22069;DHT22;13887;57.196;-2.100;2023-07-16T13:59:37;17.40;83.97
22069;DHT22;13887;57.196;-2.100;2023-07-16T14:02:05;17.43;84.10
22069;DHT22;13887;57.196;-2.100;2023-07-16T14:04:32;17.44;84.19
22069;DHT22;13887;57.196;-2.100;2023-07-16T14:07:00;17.44;84.26
22069;DHT22;13887;57.196;-2.100;2023-07-16T14:09:27;17.47;83.91
22069;DHT22;13887;57.196;-2.100;2023-07-16T14:11:55;17.47;83.71
22069;DHT22;13887;57.196;-2.100;2023-07-16T14:14:22;17.48;82.54
22069;DHT22;13887;57.196;-2.100;2023-07-16T14:16:49;17.52;82.04
22069;DHT22;13887;57.196;-2.100;2023-07-16T14:19:17;17.53;82.50
22069;DHT22;13887;57.196;-2.100;2023-07-16T14:21:44;17.55;82.88
22069;DHT22;13887;57.196;-2.100;2023-07-16T14:24:11;17.58;83.46
22069;DHT22;13887;57.196;-2.100;2023-07-16T14:26:38;17.53;79.64
22069;DHT22;13887;57.196;-2.100;2023-07-16T14:29:06;17.54;80.49
22069;DHT22;13887;57.196;-2.100;2023-07-16T14:31:33;17.54;80.76
22069;DHT22;13887;57.196;-2.100;2023-07-16T14:34:00;17.53;81.43
22069;DHT22;13887;57.196;-2.100;2023-07-16T14:36:27;17.53;81.23
22069;DHT22;13887;57.196;-2.100;2023-07-16T14:38:55;17.54;81.43
22069;DHT22;13887;57.196;-2.100;2023-07-16T14:41:22;17.53;80.44
22069;DHT22;13887;57.196;-2.100;2023-07-16T14:43:50;17.51;78.78
22069;DHT22;13887;57.196;-2.100;2023-07-16T14:46:17;17.53;79.71
22069;DHT22;13887;57.196;-2.100;2023-07-16T14:48:45;17.52;78.51
22069;DHT22;13887;57.196;-2.100;2023-07-16T14:51:13;17.51;78.30
22069;DHT22;13887;57.196;-2.100;2023-07-16T14:53:40;17.52;78.01
22069;DHT22;13887;57.196;-2.100;2023-07-16T14:56:08;17.53;78.05
22069;DHT22;13887;57.196;-2.100;2023-07-16T14:58:35;17.52;77.32
22069;DHT22;13887;57.196;-2.100;2023-07-16T15:01:03;17.48;76.64
22069;DHT22;13887;57.196;-2.100;2023-07-16T15:03:35;17.49;77.73
22069;DHT22;13887;57.196;-2.100;2023-07-16T15:06:07;17.48;77.44
22069;DHT22;13887;57.196;-2.100;2023-07-16T15:08:35;17.49;77.72
22069;DHT22;13887;57.196;-2.100;2023-07-16T15:11:02;17.51;78.11
22069;DHT22;13887;57.196;-2.100;2023-07-16T15:13:30;17.49;78.25
22069;DHT22;13887;57.196;-2.100;2023-07-16T15:15:57;17.48;78.58
22069;DHT22;13887;57.196;-2.100;2023-07-16T15:18:25;17.45;78.37
22069;DHT22;13887;57.196;-2.100;2023-07-16T15:20:57;17.41;78.70
22069;DHT22;13887;57.196;-2.100;2023-07-16T15:23:26;17.37;78.58
22069;DHT22;13887;57.196;-2.100;2023-07-16T15:25:54;17.34;78.46
22069;DHT22;13887;57.196;-2.100;2023-07-16T15:28:22;17.36;78.63